sensor_id;sensor_type;location;lat;lon;timestamp;temperature;humidity
54429;DHT22;40337;52.978;6.310;2022-08-25T00:01:00;20.70;99.90
54429;DHT22;40337;52.978;6.310;2022-08-25T00:03:26;20.60;99.90
54429;DHT22;40337;52.978;6.310;2022-08-25T00:05:51;20.60;99.90
54429;DHT22;40337;52.978;6.310;2022-08-25T00:08:17;20.60;99.90
54429;DHT22;40337;52.978;6.310;2022-08-25T00:10:42;20.60;99.90
54429;DHT22;40337;52.978;6.310;2022-08-25T00:13:08;20.60;99.90
54429;DHT22;40337;52.978;6.310;2022-08-25T00:15:34;20.60;99.90
54429;DHT22;40337;52.978;6.310;2022-08-25T00:18:00;20.50;99.90
54429;DHT22;40337;52.978;6.310;2022-08-25T00:20:27;20.50;99.90
54429;DHT22;40337;52.978;6.310;2022-08-25T00:22:53;20.50;99.90
54429;DHT22;40337;52.978;6.310;2022-08-25T00:25:20;20.50;99.90
54429;DHT22;40337;52.978;6.310;2022-08-25T00:27:50;20.50;99.90
54429;DHT22;40337;52.978;6.310;2022-08-25T00:30:16;20.50;99.90
54429;DHT22;40337;52.978;6.310;2022-08-25T00:32:43;20.50;99.90
54429;DHT22;40337;52.978;6.310;2022-08-25T00:35:09;20.40;99.90
54429;DHT22;40337;52.978;6.310;2022-08-25T00:37:34;20.40;99.90
54429;DHT22;40337;52.978;6.310;2022-08-25T00:40:04;20.40;99.90
54429;DHT22;40337;52.978;6.310;2022-08-25T00:42:30;20.40;99.90
54429;DHT22;40337;52.978;6.310;2022-08-25T00:44:56;20.40;99.90
54429;DHT22;40337;52.978;6.310;2022-08-25T00:47:23;20.30;99.90
54429;DHT22;40337;52.978;6.310;2022-08-25T00:49:52;20.30;99.90
54429;DHT22;40337;52.978;6.310;2022-08-25T00:52:26;20.30;99.90
54429;DHT22;40337;52.978;6.310;2022-08-25T00:55:18;20.30;99.90
54429;DHT22;40337;52.978;6.310;2022-08-25T00:57:54;20.20;99.90
54429;DHT22;40337;52.978;6.310;2022-08-25T01:00:27;20.10;99.90
54429;DHT22;40337;52.978;6.310;2022-08-25T01:02:53;20.10;99.90
54429;DHT22;40337;52.978;6.310;2022-08-25T01:05:21;20.00;99.90
54429;DHT22;40337;52.978;6.310;2022-08-25T01:07:47;20.00;99.90
54429;DHT22;40337;52.978;6.310;2022-08-25T01:10:16;20.00;99.90
54429;DHT22;40337;52.978;6.310;2022-08-25T01:12:42;19.90;99.90
54429;DHT22;40337;52.978;6.310;2022-08-25T01:15:10;19.90;99.90
54429;DHT22;40337;52.978;6.310;2022-08-25T01:17:49;19.90;99.90
54429;DHT22;40337;52.978;6.310;2022-08-25T01:20:16;19.90;99.90
54429;DHT22;40337;52.978;6.310;2022-08-25T01:22:44;19.80;99.90
54429;DHT22;40337;52.978;6.310;2022-08-25T01:28:12;19.80;99.90
54429;DHT22;40337;52.978;6.310;2022-08-25T01:30:39;19.70;99.90
54429;DHT22;40337;52.978;6.310;2022-08-25T01:33:07;19.70;99.90
54429;DHT22;40337;52.978;6.310;2022-08-25T01:35:33;19.70;99.90
54429;DHT22;40337;52.978;6.310;2022-08-25T01:38:04;19.70;99.90
54429;DHT22;40337;52.978;6.310;2022-08-25T01:40:30;19.70;99.90
54429;DHT22;40337;52.978;6.310;2022-08-25T01:43:15;19.70;99.90
54429;DHT22;40337;52.978;6.310;2022-08-25T01:45:45;19.70;99.90
54429;DHT22;40337;52.978;6.310;2022-08-25T01:48:12;19.70;99.90
54429;DHT22;40337;52.978;6.310;2022-08-25T01:50:39;19.70;99.90
54429;DHT22;40337;52.978;6.310;2022-08-25T01:53:26;19.60;99.90
54429;DHT22;40337;52.978;6.310;2022-08-25T01:55:52;19.60;99.90
54429;DHT22;40337;52.978;6.310;2022-08-25T01:58:32;19.60;99.90
54429;DHT22;40337;52.978;6.310;2022-08-25T02:01:01;19.60;99.90
54429;DHT22;40337;52.978;6.310;2022-08-25T02:03:28;19.50;99.90
54429;DHT22;40337;52.978;6.310;2022-08-25T02:05:55;19.50;99.90
54429;DHT22;40337;52.978;6.310;2022-08-25T02:08:22;19.50;99.90
54429;DHT22;40337;52.978;6.310;2022-08-25T02:10:48;19.50;99.90
54429;DHT22;40337;52.978;6.310;2022-08-25T02:13:14;19.50;99.90
54429;DHT22;40337;52.978;6.310;2022-08-25T02:15:42;19.40;99.90
54429;DHT22;40337;52.978;6.310;2022-08-25T02:18:09;19.40;99.90
54429;DHT22;40337;52.978;6.310;2022-08-25T02:20:35;19.30;99.90
54429;DHT22;40337;52.978;6.310;2022-08-25T02:23:00;19.30;99.90
54429;DHT22;40337;52.978;6.310;2022-08-25T02:25:26;19.20;99.90
54429;DHT22;40337;52.978;6.310;2022-08-25T02:27:52;19.30;99.90
54429;DHT22;40337;52.978;6.310;2022-08-25T02:30:17;19.30;99.90
54429;DHT22;40337;52.978;6.310;2022-08-25T02:32:43;19.20;99.90
54429;DHT22;40337;52.978;6.310;2022-08-25T02:35:09;19.20;99.90
54429;DHT22;40337;52.978;6.310;2022-08-25T02:37:35;19.20;99.90
54429;DHT22;40337;52.978;6.310;2022-08-25T02:40:01;19.20;99.90
54429;DHT22;40337;52.978;6.310;2022-08-25T02:42:27;19.20;99.90
54429;DHT22;40337;52.978;6.310;2022-08-25T02:44:52;19.10;99.90
54429;DHT22;40337;52.978;6.310;2022-08-25T02:47:19;19.10;99.90
54429;DHT22;40337;52.978;6.310;2022-08-25T02:49:45;19.10;99.90
54429;DHT22;40337;52.978;6.310;2022-08-25T02:52:10;19.10;99.90
54429;DHT22;40337;52.978;6.310;2022-08-25T02:54:36;19.10;99.90
54429;DHT22;40337;52.978;6.310;2022-08-25T02:57:02;19.10;99.90
54429;DHT22;40337;52.978;6.310;2022-08-25T02:59:28;19.10;99.90
54429;DHT22;40337;52.978;6.310;2022-08-25T03:01:54;19.10;99.90
54429;DHT22;40337;52.978;6.310;2022-08-25T03:04:19;19.20;99.90
54429;DHT22;40337;52.978;6.310;2022-08-25T03:06:46;19.10;99.90
54429;DHT22;40337;52.978;6.310;2022-08-25T03:09:12;19.20;99.90
54429;DHT22;40337;52.978;6.310;2022-08-25T03:11:38;19.10;99.90
54429;DHT22;40337;52.978;6.310;2022-08-25T03:14:05;19.10;99.90
54429;DHT22;40337;52.978;6.310;2022-08-25T03:16:31;19.10;99.90
54429;DHT22;40337;52.978;6.310;2022-08-25T03:18:57;19.10;99.90
54429;DHT22;40337;52.978;6.310;2022-08-25T03:21:24;19.10;99.90
54429;DHT22;40337;52.978;6.310;2022-08-25T03:23:49;19.10;99.90
54429;DHT22;40337;52.978;6.310;2022-08-25T03:26:15;19.10;99.90
54429;DHT22;40337;52.978;6.310;2022-08-25T03:29:00;19.10;99.90
54429;DHT22;40337;52.978;6.310;2022-08-25T03:31:30;19.10;99.90
54429;DHT22;40337;52.978;6.310;2022-08-25T03:33:57;19.00;99.90
54429;DHT22;40337;52.978;6.310;2022-08-25T03:36:24;19.00;99.90
54429;DHT22;40337;52.978;6.310;2022-08-25T03:38:51;19.00;99.90
54429;DHT22;40337;52.978;6.310;2022-08-25T03:41:26;19.10;99.90
54429;DHT22;40337;52.978;6.310;2022-08-25T03:43:57;19.10;99.90
54429;DHT22;40337;52.978;6.310;2022-08-25T03:46:33;19.10;99.90
54429;DHT22;40337;52.978;6.310;2022-08-25T03:49:01;19.10;99.90
54429;DHT22;40337;52.978;6.310;2022-08-25T03:51:30;19.00;99.90
54429;DHT22;40337;52.978;6.310;2022-08-25T03:53:56;18.90;99.90
54429;DHT22;40337;52.978;6.310;2022-08-25T03:56:23;18.90;99.90
54429;DHT22;40337;52.978;6.310;2022-08-25T03:58:49;18.90;99.90
54429;DHT22;40337;52.978;6.310;2022-08-25T04:01:15;18.90;99.90
54429;DHT22;40337;52.978;6.310;2022-08-25T04:03:41;18.90;99.90
54429;DHT22;40337;52.978;6.310;2022-08-25T04:06:07;18.80;99.90
54429;DHT22;40337;52.978;6.310;2022-08-25T04:08:34;18.80;99.90
54429;DHT22;40337;52.978;6.310;2022-08-25T04:11:15;18.70;99.90
54429;DHT22;40337;52.978;6.310;2022-08-25T04:13:42;18.70;99.90
54429;DHT22;40337;52.978;6.310;2022-08-25T04:16:15;18.60;99.90
54429;DHT22;40337;52.978;6.310;2022-08-25T04:18:42;18.60;99.90
54429;DHT22;40337;52.978;6.310;2022-08-25T04:21:09;18.60;99.90
54429;DHT22;40337;52.978;6.310;2022-08-25T04:23:36;18.50;99.90
54429;DHT22;40337;52.978;6.310;2022-08-25T04:26:08;18.50;99.90
54429;DHT22;40337;52.978;6.310;2022-08-25T04:28:34;18.50;99.90
54429;DHT22;40337;52.978;6.310;2022-08-25T04:30:59;18.50;99.90
54429;DHT22;40337;52.978;6.310;2022-08-25T04:33:25;18.50;99.90
54429;DHT22;40337;52.978;6.310;2022-08-25T04:35:50;18.40;99.90
54429;DHT22;40337;52.978;6.310;2022-08-25T04:38:16;18.40;99.90
54429;DHT22;40337;52.978;6.310;2022-08-25T04:40:42;18.40;99.90
54429;DHT22;40337;52.978;6.310;2022-08-25T04:43:07;18.30;99.90
54429;DHT22;40337;52.978;6.310;2022-08-25T04:45:37;18.30;99.90
54429;DHT22;40337;52.978;6.310;2022-08-25T04:48:03;18.40;99.90
54429;DHT22;40337;52.978;6.310;2022-08-25T04:50:29;18.30;99.90
54429;DHT22;40337;52.978;6.310;2022-08-25T04:52:54;18.30;99.90
54429;DHT22;40337;52.978;6.310;2022-08-25T04:55:20;18.30;99.90
54429;DHT22;40337;52.978;6.310;2022-08-25T04:57:46;18.20;99.90
54429;DHT22;40337;52.978;6.310;2022-08-25T05:00:12;18.20;99.90
54429;DHT22;40337;52.978;6.310;2022-08-25T05:02:37;18.20;99.90
54429;DHT22;40337;52.978;6.310;2022-08-25T05:05:03;18.20;99.90
54429;DHT22;40337;52.978;6.310;2022-08-25T05:07:29;18.20;99.90
54429;DHT22;40337;52.978;6.310;2022-08-25T05:09:55;18.20;99.90
54429;DHT22;40337;52.978;6.310;2022-08-25T05:12:20;18.20;99.90
54429;DHT22;40337;52.978;6.310;2022-08-25T05:14:46;18.20;99.90
54429;DHT22;40337;52.978;6.310;2022-08-25T05:17:12;18.20;99.90
54429;DHT22;40337;52.978;6.310;2022-08-25T05:19:38;18.20;99.90
54429;DHT22;40337;52.978;6.310;2022-08-25T05:22:04;18.20;99.90
54429;DHT22;40337;52.978;6.310;2022-08-25T05:24:29;18.20;99.90
54429;DHT22;40337;52.978;6.310;2022-08-25T05:26:55;18.20;99.90
54429;DHT22;40337;52.978;6.310;2022-08-25T05:29:21;18.20;99.90
54429;DHT22;40337;52.978;6.310;2022-08-25T05:31:47;18.20;99.90
54429;DHT22;40337;52.978;6.310;2022-08-25T05:34:12;18.20;99.90
54429;DHT22;40337;52.978;6.310;2022-08-25T05:36:38;18.30;99.90
54429;DHT22;40337;52.978;6.310;2022-08-25T05:39:08;18.30;99.90
54429;DHT22;40337;52.978;6.310;2022-08-25T05:41:34;18.30;99.90
54429;DHT22;40337;52.978;6.310;2022-08-25T05:43:59;18.30;99.90
54429;DHT22;40337;52.978;6.310;2022-08-25T05:46:25;18.30;99.90
54429;DHT22;40337;52.978;6.310;2022-08-25T05:48:52;18.30;99.90
54429;DHT22;40337;52.978;6.310;2022-08-25T05:51:18;18.40;99.90
54429;DHT22;40337;52.978;6.310;2022-08-25T05:53:46;18.40;99.90
54429;DHT22;40337;52.978;6.310;2022-08-25T05:56:13;18.40;99.90
54429;DHT22;40337;52.978;6.310;2022-08-25T05:58:39;18.50;99.90
54429;DHT22;40337;52.978;6.310;2022-08-25T06:01:05;18.50;99.90
54429;DHT22;40337;52.978;6.310;2022-08-25T06:03:50;18.60;99.90
54429;DHT22;40337;52.978;6.310;2022-08-25T06:06:21;18.60;99.90
54429;DHT22;40337;52.978;6.310;2022-08-25T06:08:47;18.60;99.90
54429;DHT22;40337;52.978;6.310;2022-08-25T06:11:13;18.70;99.90
54429;DHT22;40337;52.978;6.310;2022-08-25T06:13:40;18.70;99.90
54429;DHT22;40337;52.978;6.310;2022-08-25T06:16:06;18.80;99.90
54429;DHT22;40337;52.978;6.310;2022-08-25T06:18:31;18.80;99.90
54429;DHT22;40337;52.978;6.310;2022-08-25T06:20:57;18.90;99.90
54429;DHT22;40337;52.978;6.310;2022-08-25T06:23:23;19.00;99.90
54429;DHT22;40337;52.978;6.310;2022-08-25T06:25:52;19.10;99.90
54429;DHT22;40337;52.978;6.310;2022-08-25T06:28:19;19.10;99.90
54429;DHT22;40337;52.978;6.310;2022-08-25T06:30:45;19.20;99.90
54429;DHT22;40337;52.978;6.310;2022-08-25T06:33:11;19.20;99.90
54429;DHT22;40337;52.978;6.310;2022-08-25T06:35:40;19.20;99.90
54429;DHT22;40337;52.978;6.310;2022-08-25T06:38:06;19.30;99.90
54429;DHT22;40337;52.978;6.310;2022-08-25T06:40:32;19.40;99.90
54429;DHT22;40337;52.978;6.310;2022-08-25T06:42:57;19.50;99.90
54429;DHT22;40337;52.978;6.310;2022-08-25T06:45:23;19.60;99.90
54429;DHT22;40337;52.978;6.310;2022-08-25T06:47:48;19.70;99.90
54429;DHT22;40337;52.978;6.310;2022-08-25T06:50:14;19.80;99.90
54429;DHT22;40337;52.978;6.310;2022-08-25T06:52:40;19.90;99.90
54429;DHT22;40337;52.978;6.310;2022-08-25T06:55:05;20.00;99.90
54429;DHT22;40337;52.978;6.310;2022-08-25T06:57:31;20.10;99.90
54429;DHT22;40337;52.978;6.310;2022-08-25T07:00:00;20.20;99.90
54429;DHT22;40337;52.978;6.310;2022-08-25T07:02:26;20.30;99.90
54429;DHT22;40337;52.978;6.310;2022-08-25T07:04:51;20.40;99.90
54429;DHT22;40337;52.978;6.310;2022-08-25T07:07:18;20.50;99.90
54429;DHT22;40337;52.978;6.310;2022-08-25T07:09:43;20.60;99.90
54429;DHT22;40337;52.978;6.310;2022-08-25T07:12:09;20.60;99.90
54429;DHT22;40337;52.978;6.310;2022-08-25T07:14:34;20.80;99.90
54429;DHT22;40337;52.978;6.310;2022-08-25T07:17:01;20.90;99.90
54429;DHT22;40337;52.978;6.310;2022-08-25T07:19:27;21.00;99.90
54429;DHT22;40337;52.978;6.310;2022-08-25T07:21:52;21.10;99.90
54429;DHT22;40337;52.978;6.310;2022-08-25T07:24:19;21.20;99.90
54429;DHT22;40337;52.978;6.310;2022-08-25T07:26:45;21.30;99.90
54429;DHT22;40337;52.978;6.310;2022-08-25T07:29:19;21.40;99.90
54429;DHT22;40337;52.978;6.310;2022-08-25T07:31:46;21.50;99.90
54429;DHT22;40337;52.978;6.310;2022-08-25T07:34:11;21.60;99.90
54429;DHT22;40337;52.978;6.310;2022-08-25T07:36:55;21.70;99.90
54429;DHT22;40337;52.978;6.310;2022-08-25T07:39:22;22.00;99.90
54429;DHT22;40337;52.978;6.310;2022-08-25T07:41:50;22.10;99.90
54429;DHT22;40337;52.978;6.310;2022-08-25T07:44:15;22.10;99.90
54429;DHT22;40337;52.978;6.310;2022-08-25T07:46:41;22.20;99.90
54429;DHT22;40337;52.978;6.310;2022-08-25T07:49:07;22.20;99.90
54429;DHT22;40337;52.978;6.310;2022-08-25T07:51:33;22.30;99.90
54429;DHT22;40337;52.978;6.310;2022-08-25T07:53:58;22.40;99.90
54429;DHT22;40337;52.978;6.310;2022-08-25T07:56:24;22.40;99.90
54429;DHT22;40337;52.978;6.310;2022-08-25T07:58:49;22.60;99.90
54429;DHT22;40337;52.978;6.310;2022-08-25T08:01:17;22.60;99.90
54429;DHT22;40337;52.978;6.310;2022-08-25T08:03:44;22.70;99.90
54429;DHT22;40337;52.978;6.310;2022-08-25T08:06:11;22.60;99.90
54429;DHT22;40337;52.978;6.310;2022-08-25T08:08:40;22.70;99.90
54429;DHT22;40337;52.978;6.310;2022-08-25T08:11:14;22.80;99.90
54429;DHT22;40337;52.978;6.310;2022-08-25T08:13:40;22.90;99.90
54429;DHT22;40337;52.978;6.310;2022-08-25T08:16:14;22.90;99.90
54429;DHT22;40337;52.978;6.310;2022-08-25T08:18:42;23.10;99.90
54429;DHT22;40337;52.978;6.310;2022-08-25T08:21:13;23.10;99.90
54429;DHT22;40337;52.978;6.310;2022-08-25T08:23:39;23.20;99.90
54429;DHT22;40337;52.978;6.310;2022-08-25T08:26:05;23.30;99.90
54429;DHT22;40337;52.978;6.310;2022-08-25T08:28:31;23.40;99.90
54429;DHT22;40337;52.978;6.310;2022-08-25T08:30:56;23.30;99.90
54429;DHT22;40337;52.978;6.310;2022-08-25T08:33:23;23.40;99.90
54429;DHT22;40337;52.978;6.310;2022-08-25T08:35:58;23.40;99.90
54429;DHT22;40337;52.978;6.310;2022-08-25T08:38:24;23.50;99.90
54429;DHT22;40337;52.978;6.310;2022-08-25T08:47:10;24.10;99.90
54429;DHT22;40337;52.978;6.310;2022-08-25T08:55:32;24.70;99.90
54429;DHT22;40337;52.978;6.310;2022-08-25T08:58:00;25.00;99.90
54429;DHT22;40337;52.978;6.310;2022-08-25T09:00:27;25.40;99.90
54429;DHT22;40337;52.978;6.310;2022-08-25T09:03:06;25.70;99.50
54429;DHT22;40337;52.978;6.310;2022-08-25T09:05:38;25.70;99.90
54429;DHT22;40337;52.978;6.310;2022-08-25T09:08:10;25.70;99.70
54429;DHT22;40337;52.978;6.310;2022-08-25T09:13:43;26.60;97.70
54429;DHT22;40337;52.978;6.310;2022-08-25T09:16:47;27.50;96.40
54429;DHT22;40337;52.978;6.310;2022-08-25T09:19:37;28.40;95.50
54429;DHT22;40337;52.978;6.310;2022-08-25T09:22:17;29.10;94.90
54429;DHT22;40337;52.978;6.310;2022-08-25T09:30:12;30.10;90.20
54429;DHT22;40337;52.978;6.310;2022-08-25T09:32:57;30.30;87.70
54429;DHT22;40337;52.978;6.310;2022-08-25T09:35:34;30.60;84.60
54429;DHT22;40337;52.978;6.310;2022-08-25T09:38:06;30.70;81.20
54429;DHT22;40337;52.978;6.310;2022-08-25T09:40:35;30.70;81.10
54429;DHT22;40337;52.978;6.310;2022-08-25T09:43:04;30.90;82.80
54429;DHT22;40337;52.978;6.310;2022-08-25T09:45:44;31.00;81.60
54429;DHT22;40337;52.978;6.310;2022-08-25T09:48:50;31.20;79.40
54429;DHT22;40337;52.978;6.310;2022-08-25T09:56:59;31.60;77.90
54429;DHT22;40337;52.978;6.310;2022-08-25T09:59:34;31.50;74.90
54429;DHT22;40337;52.978;6.310;2022-08-25T10:02:03;31.50;71.50
54429;DHT22;40337;52.978;6.310;2022-08-25T10:04:37;31.60;71.80
54429;DHT22;40337;52.978;6.310;2022-08-25T10:07:22;31.60;70.90
54429;DHT22;40337;52.978;6.310;2022-08-25T10:09:55;31.70;68.80
54429;DHT22;40337;52.978;6.310;2022-08-25T10:12:45;31.80;70.60
54429;DHT22;40337;52.978;6.310;2022-08-25T10:15:19;32.00;69.80
54429;DHT22;40337;52.978;6.310;2022-08-25T10:17:45;32.10;67.70
54429;DHT22;40337;52.978;6.310;2022-08-25T10:22:38;32.30;71.30
54429;DHT22;40337;52.978;6.310;2022-08-25T10:25:05;32.30;69.70
54429;DHT22;40337;52.978;6.310;2022-08-25T10:30:33;32.60;63.40
54429;DHT22;40337;52.978;6.310;2022-08-25T10:33:19;32.70;64.40
54429;DHT22;40337;52.978;6.310;2022-08-25T10:36:13;32.80;64.00
54429;DHT22;40337;52.978;6.310;2022-08-25T10:39:21;33.10;67.40
54429;DHT22;40337;52.978;6.310;2022-08-25T10:44:23;33.20;62.20
54429;DHT22;40337;52.978;6.310;2022-08-25T10:55:51;33.50;58.90
54429;DHT22;40337;52.978;6.310;2022-08-25T11:01:43;33.60;59.30
54429;DHT22;40337;52.978;6.310;2022-08-25T11:04:25;33.80;58.80
54429;DHT22;40337;52.978;6.310;2022-08-25T11:06:59;33.70;56.50
54429;DHT22;40337;52.978;6.310;2022-08-25T11:09:31;33.80;57.50
54429;DHT22;40337;52.978;6.310;2022-08-25T11:12:01;33.80;56.40
54429;DHT22;40337;52.978;6.310;2022-08-25T11:14:39;34.00;55.80
54429;DHT22;40337;52.978;6.310;2022-08-25T11:17:15;34.00;57.10
54429;DHT22;40337;52.978;6.310;2022-08-25T11:19:48;33.90;55.60
54429;DHT22;40337;52.978;6.310;2022-08-25T11:22:41;34.00;54.80
54429;DHT22;40337;52.978;6.310;2022-08-25T11:25:22;33.90;55.60
54429;DHT22;40337;52.978;6.310;2022-08-25T11:30:43;34.00;55.40
54429;DHT22;40337;52.978;6.310;2022-08-25T11:33:16;33.80;52.90
54429;DHT22;40337;52.978;6.310;2022-08-25T11:35:55;34.00;52.10
54429;DHT22;40337;52.978;6.310;2022-08-25T11:52:07;34.20;49.20
54429;DHT22;40337;52.978;6.310;2022-08-25T11:54:44;34.20;52.40
54429;DHT22;40337;52.978;6.310;2022-08-25T12:06:12;34.70;50.30
54429;DHT22;40337;52.978;6.310;2022-08-25T12:11:02;34.80;50.60
54429;DHT22;40337;52.978;6.310;2022-08-25T12:13:47;34.90;52.20
54429;DHT22;40337;52.978;6.310;2022-08-25T12:16:41;34.80;51.60
54429;DHT22;40337;52.978;6.310;2022-08-25T12:21:51;35.00;51.90
54429;DHT22;40337;52.978;6.310;2022-08-25T12:29:42;35.30;50.20
54429;DHT22;40337;52.978;6.310;2022-08-25T12:32:22;35.20;50.20
54429;DHT22;40337;52.978;6.310;2022-08-25T12:35:06;35.30;50.90
54429;DHT22;40337;52.978;6.310;2022-08-25T12:37:33;35.30;50.10
54429;DHT22;40337;52.978;6.310;2022-08-25T12:40:02;35.30;49.50
54429;DHT22;40337;52.978;6.310;2022-08-25T12:42:35;35.30;49.20
54429;DHT22;40337;52.978;6.310;2022-08-25T12:45:34;35.20;48.70
54429;DHT22;40337;52.978;6.310;2022-08-25T12:51:00;35.20;49.80
54429;DHT22;40337;52.978;6.310;2022-08-25T12:53:48;35.30;49.20
54429;DHT22;40337;52.978;6.310;2022-08-25T12:56:25;35.20;52.50
54429;DHT22;40337;52.978;6.310;2022-08-25T13:09:46;35.30;51.00
54429;DHT22;40337;52.978;6.310;2022-08-25T13:14:45;35.50;49.90
54429;DHT22;40337;52.978;6.310;2022-08-25T13:17:31;35.40;49.00
54429;DHT22;40337;52.978;6.310;2022-08-25T13:20:18;35.40;47.50
54429;DHT22;40337;52.978;6.310;2022-08-25T13:22:46;35.30;50.00
54429;DHT22;40337;52.978;6.310;2022-08-25T13:25:21;35.30;48.10
54429;DHT22;40337;52.978;6.310;2022-08-25T13:27:53;35.20;47.50
54429;DHT22;40337;52.978;6.310;2022-08-25T13:30:28;35.30;46.60
54429;DHT22;40337;52.978;6.310;2022-08-25T13:32:55;35.20;46.30
54429;DHT22;40337;52.978;6.310;2022-08-25T13:35:27;35.40;46.00
54429;DHT22;40337;52.978;6.310;2022-08-25T13:37:53;35.20;44.90
54429;DHT22;40337;52.978;6.310;2022-08-25T13:40:25;35.10;44.60
54429;DHT22;40337;52.978;6.310;2022-08-25T13:42:59;35.20;47.20
54429;DHT22;40337;52.978;6.310;2022-08-25T13:45:29;35.10;47.70
54429;DHT22;40337;52.978;6.310;2022-08-25T13:47:55;35.10;44.90
54429;DHT22;40337;52.978;6.310;2022-08-25T13:57:57;34.90;44.10
54429;DHT22;40337;52.978;6.310;2022-08-25T14:00:39;34.90;44.70
54429;DHT22;40337;52.978;6.310;2022-08-25T14:03:05;34.90;46.60
54429;DHT22;40337;52.978;6.310;2022-08-25T14:05:38;34.70;44.50
54429;DHT22;40337;52.978;6.310;2022-08-25T14:08:06;34.90;45.50
54429;DHT22;40337;52.978;6.310;2022-08-25T14:10:42;34.90;46.00
54429;DHT22;40337;52.978;6.310;2022-08-25T14:15:38;34.70;45.40
54429;DHT22;40337;52.978;6.310;2022-08-25T14:18:20;34.90;46.30
54429;DHT22;40337;52.978;6.310;2022-08-25T14:20:51;34.90;47.30
54429;DHT22;40337;52.978;6.310;2022-08-25T14:23:23;34.70;46.20
54429;DHT22;40337;52.978;6.310;2022-08-25T14:25:52;34.80;46.50
54429;DHT22;40337;52.978;6.310;2022-08-25T14:28:21;34.80;45.40
54429;DHT22;40337;52.978;6.310;2022-08-25T14:30:54;34.80;48.20
54429;DHT22;40337;52.978;6.310;2022-08-25T14:33:25;34.70;45.90
54429;DHT22;40337;52.978;6.310;2022-08-25T14:35:53;34.60;45.20
54429;DHT22;40337;52.978;6.310;2022-08-25T14:38:20;34.50;47.30
54429;DHT22;40337;52.978;6.310;2022-08-25T14:40:46;34.60;45.80
54429;DHT22;40337;52.978;6.310;2022-08-25T14:43:12;34.50;45.80
54429;DHT22;40337;52.978;6.310;2022-08-25T14:45:41;34.40;46.20
54429;DHT22;40337;52.978;6.310;2022-08-25T14:48:09;34.40;46.00
54429;DHT22;40337;52.978;6.310;2022-08-25T14:50:38;34.30;46.70
54429;DHT22;40337;52.978;6.310;2022-08-25T14:53:06;34.30;46.90
54429;DHT22;40337;52.978;6.310;2022-08-25T14:55:32;34.10;47.60
54429;DHT22;40337;52.978;6.310;2022-08-25T14:57:58;34.10;47.70
54429;DHT22;40337;52.978;6.310;2022-08-25T15:00:23;34.10;47.40
54429;DHT22;40337;52.978;6.310;2022-08-25T15:02:49;34.10;48.60
54429;DHT22;40337;52.978;6.310;2022-08-25T15:05:20;34.10;47.80
54429;DHT22;40337;52.978;6.310;2022-08-25T15:07:49;34.00;48.20
54429;DHT22;40337;52.978;6.310;2022-08-25T15:10:33;34.00;47.70
54429;DHT22;40337;52.978;6.310;2022-08-25T15:12:59;33.80;47.90
54429;DHT22;40337;52.978;6.310;2022-08-25T15:15:24;33.70;48.20
54429;DHT22;40337;52.978;6.310;2022-08-25T15:17:53;33.60;48.30
54429;DHT22;40337;52.978;6.310;2022-08-25T15:20:19;33.60;50.40
54429;DHT22;40337;52.978;6.310;2022-08-25T15:22:44;33.60;49.60
54429;DHT22;40337;52.978;6.310;2022-08-25T15:25:12;33.60;49.40
54429;DHT22;40337;52.978;6.310;2022-08-25T15:27:38;33.60;49.20
54429;DHT22;40337;52.978;6.310;2022-08-25T15:30:04;33.60;48.80
54429;DHT22;40337;52.978;6.310;2022-08-25T15:32:30;33.40;49.80
54429;DHT22;40337;52.978;6.310;2022-08-25T15:34:55;33.40;50.50
54429;DHT22;40337;52.978;6.310;2022-08-25T15:37:21;33.40;50.00
54429;DHT22;40337;52.978;6.310;2022-08-25T15:39:47;33.30;50.30
54429;DHT22;40337;52.978;6.310;2022-08-25T15:42:14;33.30;50.80
54429;DHT22;40337;52.978;6.310;2022-08-25T15:44:41;33.20;50.30
54429;DHT22;40337;52.978;6.310;2022-08-25T15:47:07;33.20;50.60
54429;DHT22;40337;52.978;6.310;2022-08-25T15:49:33;33.10;49.80
54429;DHT22;40337;52.978;6.310;2022-08-25T15:51:59;33.00;49.40
54429;DHT22;40337;52.978;6.310;2022-08-25T15:54:26;33.00;49.50
54429;DHT22;40337;52.978;6.310;2022-08-25T15:56:52;32.90;49.90
54429;DHT22;40337;52.978;6.310;2022-08-25T15:59:18;32.90;50.20
54429;DHT22;40337;52.978;6.310;2022-08-25T16:01:45;32.80;50.10
54429;DHT22;40337;52.978;6.310;2022-08-25T16:04:10;32.70;51.10
54429;DHT22;40337;52.978;6.310;2022-08-25T16:06:37;32.60;51.70
54429;DHT22;40337;52.978;6.310;2022-08-25T16:09:04;32.60;52.90
54429;DHT22;40337;52.978;6.310;2022-08-25T16:11:31;32.50;53.00
54429;DHT22;40337;52.978;6.310;2022-08-25T16:14:00;32.40;51.60
54429;DHT22;40337;52.978;6.310;2022-08-25T16:16:27;32.30;52.70
54429;DHT22;40337;52.978;6.310;2022-08-25T16:18:54;32.40;51.70
54429;DHT22;40337;52.978;6.310;2022-08-25T16:21:23;32.30;53.30
54429;DHT22;40337;52.978;6.310;2022-08-25T16:23:52;32.20;55.00
54429;DHT22;40337;52.978;6.310;2022-08-25T16:26:19;32.10;56.10
54429;DHT22;40337;52.978;6.310;2022-08-25T16:28:45;32.00;55.70
54429;DHT22;40337;52.978;6.310;2022-08-25T16:31:15;31.90;54.90
54429;DHT22;40337;52.978;6.310;2022-08-25T16:33:41;31.80;56.40
54429;DHT22;40337;52.978;6.310;2022-08-25T16:36:11;31.80;54.60
54429;DHT22;40337;52.978;6.310;2022-08-25T16:38:40;31.70;56.70
54429;DHT22;40337;52.978;6.310;2022-08-25T16:41:15;31.60;57.40
54429;DHT22;40337;52.978;6.310;2022-08-25T16:43:41;31.60;56.80
54429;DHT22;40337;52.978;6.310;2022-08-25T16:46:10;31.40;58.00
54429;DHT22;40337;52.978;6.310;2022-08-25T16:48:37;31.30;59.10
54429;DHT22;40337;52.978;6.310;2022-08-25T16:51:15;31.10;59.80
54429;DHT22;40337;52.978;6.310;2022-08-25T16:53:41;31.00;58.50
54429;DHT22;40337;52.978;6.310;2022-08-25T16:56:26;30.90;57.60
54429;DHT22;40337;52.978;6.310;2022-08-25T16:58:59;30.80;58.50
54429;DHT22;40337;52.978;6.310;2022-08-25T17:01:27;30.70;61.00
54429;DHT22;40337;52.978;6.310;2022-08-25T17:03:55;30.60;61.30
54429;DHT22;40337;52.978;6.310;2022-08-25T17:06:23;30.40;62.30
54429;DHT22;40337;52.978;6.310;2022-08-25T17:08:49;30.30;60.70
54429;DHT22;40337;52.978;6.310;2022-08-25T17:11:27;30.20;62.00
54429;DHT22;40337;52.978;6.310;2022-08-25T17:13:58;30.10;63.40
54429;DHT22;40337;52.978;6.310;2022-08-25T17:16:28;30.10;64.40
54429;DHT22;40337;52.978;6.310;2022-08-25T17:18:56;30.00;63.90
54429;DHT22;40337;52.978;6.310;2022-08-25T17:21:22;29.80;63.70
54429;DHT22;40337;52.978;6.310;2022-08-25T17:23:52;29.70;65.10
54429;DHT22;40337;52.978;6.310;2022-08-25T17:26:19;29.70;65.80
54429;DHT22;40337;52.978;6.310;2022-08-25T17:28:45;29.60;65.50
54429;DHT22;40337;52.978;6.310;2022-08-25T17:31:12;29.50;66.40
54429;DHT22;40337;52.978;6.310;2022-08-25T17:33:38;29.40;66.40
54429;DHT22;40337;52.978;6.310;2022-08-25T17:36:06;29.30;66.10